Time;durP1;ratioP1;P1;durP2;ratioP2;P2;SDS_P1;SDS_P2;PMS_P1;PMS_P2;Temp;Humidity;BMP_temperature;BMP_pressure;BME280_temperature;BME280_humidity;BME280_pressure;Samples;Min_cycle;Max_cycle;Signal;HPM_P1;HPM_P2
2023/04/02 00:01:00;;;;;;;13.32;4.03;;;;;;;9.05;100.00;100631.88;5001196;28;20025;-80
2023/04/02 00:03:44;;;;;;;12.27;2.85;;;;;;;9.04;100.00;100641.31;5030844;28;20037;-79
2023/04/02 00:07:09;;;;;;;12.73;3.55;;;;;;;9.03;100.00;100636.91;5033147;28;20109;-80
2023/04/02 00:09:13;;;;;;;12.90;3.10;;;;;;;9.01;100.00;100646.59;5028229;28;20048;-79
2023/04/02 00:11:41;;;;;;;17.38;3.95;;;;;;;8.96;100.00;100658.50;5018372;28;20109;-79
2023/04/02 00:14:27;;;;;;;12.90;3.60;;;;;;;8.97;100.00;100648.25;5017240;28;20490;-79
2023/04/02 00:16:54;;;;;;;9.52;3.13;;;;;;;8.93;100.00;100651.59;5009113;28;20117;-80
2023/04/02 00:19:38;;;;;;;14.63;3.47;;;;;;;8.94;100.00;100661.56;5033680;28;20124;-79
2023/04/02 00:22:05;;;;;;;10.88;3.08;;;;;;;8.95;100.00;100652.13;5001136;28;20541;-79
2023/04/02 00:24:31;;;;;;;13.90;3.20;;;;;;;8.94;100.00;100663.50;4997902;28;20033;-81
2023/04/02 00:26:56;;;;;;;10.15;3.40;;;;;;;8.92;100.00;100668.50;5030005;28;20037;-80
2023/04/02 00:29:22;;;;;;;13.30;2.97;;;;;;;8.93;100.00;100665.44;5033525;28;20056;-79
2023/04/02 00:31:51;;;;;;;8.60;3.13;;;;;;;8.91;100.00;100666.81;5006821;28;20032;-79
2023/04/02 00:34:22;;;;;;;11.02;3.17;;;;;;;8.90;100.00;100665.16;5001595;28;20025;-79
2023/04/02 00:36:49;;;;;;;10.45;3.40;;;;;;;8.92;100.00;100674.03;5000440;28;20033;-80
2023/04/02 00:39:21;;;;;;;12.57;3.55;;;;;;;8.90;100.00;100674.31;5033907;28;20044;-79
2023/04/02 00:41:47;;;;;;;15.30;4.05;;;;;;;8.89;100.00;100680.13;5010158;28;20473;-79
2023/04/02 00:44:13;;;;;;;17.80;4.32;;;;;;;8.90;100.00;100688.16;5016965;28;20029;-79
2023/04/02 00:46:48;;;;;;;13.60;3.72;;;;;;;8.93;100.00;100687.59;5048573;28;20029;-79
2023/04/02 00:49:34;;;;;;;11.50;3.50;;;;;;;8.94;100.00;100688.41;5022778;28;20132;-79
2023/04/02 00:52:21;;;;;;;16.38;4.22;;;;;;;8.91;100.00;100688.97;5050038;28;20033;-80
2023/04/02 00:54:58;;;;;;;11.38;3.65;;;;;;;8.92;100.00;100690.66;4999500;28;20032;-80
2023/04/02 00:57:25;;;;;;;11.93;3.70;;;;;;;8.94;100.00;100694.81;5044814;28;20038;-79
2023/04/02 00:59:59;;;;;;;12.63;3.95;;;;;;;8.94;100.00;100693.97;5031807;28;20536;-79
2023/04/02 01:02:30;;;;;;;14.10;4.43;;;;;;;8.97;100.00;100700.88;5015099;28;20491;-80
2023/04/02 01:05:18;;;;;;;14.93;5.05;;;;;;;8.97;100.00;100692.56;5016619;28;20021;-79
2023/04/02 01:07:46;;;;;;;10.82;4.28;;;;;;;8.96;100.00;100700.06;4986590;28;20029;-79
2023/04/02 01:10:18;;;;;;;13.50;5.30;;;;;;;8.97;100.00;100701.75;5003346;28;20052;-79
2023/04/02 01:12:49;;;;;;;13.38;5.22;;;;;;;8.99;100.00;100699.50;5024083;28;20060;-79
2023/04/02 01:15:26;;;;;;;11.77;4.65;;;;;;;8.97;100.00;100698.97;5019978;28;20103;-79
2023/04/02 01:18:00;;;;;;;14.40;5.07;;;;;;;8.97;100.00;100704.50;5017417;28;20051;-79
2023/04/02 01:20:42;;;;;;;16.35;5.68;;;;;;;8.98;100.00;100710.88;5048415;28;20564;-79
2023/04/02 01:23:16;;;;;;;13.57;4.88;;;;;;;9.02;100.00;100712.78;5049302;28;20069;-80
2023/04/02 01:25:50;;;;;;;14.60;5.28;;;;;;;9.04;100.00;100710.56;5045673;28;20022;-80
2023/04/02 01:28:26;;;;;;;11.57;4.78;;;;;;;9.05;100.00;100714.16;5018729;28;20029;-79
2023/04/02 01:30:53;;;;;;;13.40;5.72;;;;;;;9.04;100.00;100705.03;5019717;28;20394;-80
2023/04/02 01:33:21;;;;;;;12.48;5.13;;;;;;;9.03;100.00;100703.38;5020710;28;20395;-79
2023/04/02 01:35:48;;;;;;;16.67;6.82;;;;;;;9.02;100.00;100707.25;5019353;28;20487;-79
2023/04/02 01:38:18;;;;;;;14.63;5.55;;;;;;;9.05;100.00;100706.69;5004221;28;20055;-80
2023/04/02 01:40:51;;;;;;;13.63;4.95;;;;;;;8.99;100.00;100713.34;5016075;28;20026;-79
2023/04/02 01:43:37;;;;;;;14.90;6.53;;;;;;;9.04;100.00;100721.66;5017332;28;20044;-79
2023/04/02 01:46:23;;;;;;;14.18;5.45;;;;;;;9.03;100.00;100725.56;5040091;28;20030;-79
2023/04/02 01:48:49;;;;;;;11.52;4.93;;;;;;;9.03;100.00;100731.09;5036435;28;20037;-79
2023/04/02 01:51:31;;;;;;;10.88;5.38;;;;;;;9.04;100.00;100727.19;5035627;28;20406;-80
2023/04/02 01:53:58;;;;;;;12.98;4.70;;;;;;;9.05;100.00;100726.09;5003167;28;20528;-80
2023/04/02 01:56:24;;;;;;;13.48;4.90;;;;;;;9.08;100.00;100728.31;5000580;28;20061;-79
2023/04/02 01:58:50;;;;;;;13.35;4.38;;;;;;;9.11;100.00;100722.22;5019683;28;20029;-79
2023/04/02 02:01:20;;;;;;;11.23;4.75;;;;;;;9.11;100.00;100732.44;5035796;28;20022;-79
2023/04/02 02:03:46;;;;;;;13.05;5.15;;;;;;;9.13;100.00;100736.59;5015785;28;20046;-79
2023/04/02 02:06:12;;;;;;;13.63;4.63;;;;;;;9.15;100.00;100730.78;5040826;28;20083;-79
2023/04/02 02:08:40;;;;;;;11.20;4.65;;;;;;;9.13;100.00;100724.69;5037227;28;20030;-79
2023/04/02 02:11:06;;;;;;;12.63;4.20;;;;;;;9.15;100.00;100722.47;5006973;28;20038;-79
2023/04/02 02:13:32;;;;;;;8.15;3.85;;;;;;;9.15;100.00;100716.94;5002936;28;20041;-79
2023/04/02 02:15:58;;;;;;;10.10;3.60;;;;;;;9.14;100.00;100723.59;5015935;28;20026;-80
2023/04/02 02:18:23;;;;;;;9.30;4.00;;;;;;;9.15;100.00;100722.47;5045630;28;20032;-79
2023/04/02 02:20:50;;;;;;;9.68;4.35;;;;;;;9.13;100.00;100717.22;4999224;28;20034;-79
2023/04/02 02:23:15;;;;;;;9.50;4.30;;;;;;;9.13;100.00;100724.69;5038846;28;20057;-79
2023/04/02 02:25:41;;;;;;;6.07;3.65;;;;;;;9.12;100.00;100729.41;5051836;28;20025;-80
2023/04/02 02:28:12;;;;;;;8.20;3.60;;;;;;;9.12;100.00;100734.94;4999705;28;20038;-79
2023/04/02 02:30:42;;;;;;;8.32;3.78;;;;;;;9.12;100.00;100723.03;5016977;28;20493;-79
2023/04/02 02:33:29;;;;;;;11.57;3.40;;;;;;;9.12;100.00;100734.13;5002703;28;20025;-79
2023/04/02 02:36:06;;;;;;;7.47;3.40;;;;;;;9.11;100.00;100737.97;5038306;28;20044;-79
2023/04/02 02:38:55;;;;;;;9.40;4.03;;;;;;;9.10;100.00;100741.88;5031450;28;20037;-80
2023/04/02 02:41:43;;;;;;;8.30;3.35;;;;;;;9.10;100.00;100739.94;5037019;28;20025;-80
2023/04/02 02:44:09;;;;;;;9.27;3.95;;;;;;;9.09;100.00;100748.53;5035537;28;20581;-79
2023/04/02 02:46:45;;;;;;;8.27;3.85;;;;;;;9.06;100.00;100741.63;5015335;28;20046;-79
2023/04/02 02:49:15;;;;;;;7.43;3.80;;;;;;;9.08;100.00;100755.16;5031314;28;20128;-80
2023/04/02 02:51:45;;;;;;;9.73;3.90;;;;;;;9.03;100.00;100758.78;4998948;28;20442;-80
2023/04/02 02:54:12;;;;;;;8.75;3.95;;;;;;;9.03;100.00;100756.03;4994052;28;20077;-80
2023/04/02 02:56:39;;;;;;;9.88;3.38;;;;;;;9.03;100.00;100764.34;5018134;28;20048;-80
2023/04/02 02:59:05;;;;;;;8.60;3.53;;;;;;;9.02;100.00;100756.28;5004319;28;20038;-80
2023/04/02 03:01:30;;;;;;;9.88;4.30;;;;;;;9.02;100.00;100764.59;5027287;28;20080;-80
2023/04/02 03:03:56;;;;;;;13.05;4.25;;;;;;;8.99;100.00;100770.69;5000118;28;20026;-80
2023/04/02 03:06:21;;;;;;;7.90;3.97;;;;;;;9.01;100.00;100771.25;5034840;28;20029;-79
2023/04/02 03:09:05;;;;;;;15.63;6.63;;;;;;;8.95;100.00;100776.78;5016656;28;20041;-79
2023/04/02 03:11:38;;;;;;;15.30;5.55;;;;;;;8.95;100.00;100779.56;5017559;28;20025;-79
2023/04/02 03:14:16;;;;;;;19.35;6.03;;;;;;;8.96;100.00;100788.69;5035079;28;20030;-79
2023/04/02 03:16:44;;;;;;;14.20;6.20;;;;;;;8.96;100.00;100783.16;5031098;28;20486;-79
2023/04/02 03:19:16;;;;;;;15.70;5.25;;;;;;;8.97;100.00;100784.84;5034410;28;20025;-79
2023/04/02 03:21:47;;;;;;;14.13;6.25;;;;;;;8.95;100.00;100789.81;5036483;28;20036;-80
2023/04/02 03:24:35;;;;;;;12.82;5.70;;;;;;;8.99;100.00;100796.44;5022143;28;20033;-80
2023/04/02 03:27:06;;;;;;;17.27;6.53;;;;;;;8.98;100.00;100794.81;5034044;28;20029;-79
2023/04/02 03:29:33;;;;;;;13.07;5.75;;;;;;;8.97;100.00;100801.47;5017451;28;20405;-80
2023/04/02 03:32:21;;;;;;;13.95;5.95;;;;;;;8.98;100.00;100814.19;5029839;28;20028;-80
2023/04/02 03:34:54;;;;;;;11.23;4.72;;;;;;;9.01;100.00;100804.50;5030636;28;20490;-79
2023/04/02 03:37:33;;;;;;;;;;;;;;;9.01;100.00;100818.34;5017654;28;20029;-79
2023/04/02 03:40:00;;;;;;;16.67;6.45;;;;;;;8.99;100.00;100821.38;5054087;28;20409;-79
2023/04/02 03:42:27;;;;;;;14.77;5.53;;;;;;;8.99;100.00;100824.16;5038062;28;20537;-79
2023/04/02 03:44:59;;;;;;;11.32;4.80;;;;;;;9.00;100.00;100825.84;5012005;28;20030;-79
2023/04/02 03:47:58;;;;;;;16.15;6.57;;;;;;;8.97;100.00;100826.41;5030103;28;20029;-80
2023/04/02 03:50:34;;;;;;;12.07;4.85;;;;;;;9.03;100.00;100833.59;5003098;28;20626;-79
2023/04/02 03:53:01;;;;;;;13.98;4.30;;;;;;;9.06;100.00;100833.03;5035325;28;20057;-78
2023/04/02 03:55:29;;;;;;;10.20;4.60;;;;;;;9.06;100.00;100830.28;5030598;28;20049;-78
2023/04/02 03:58:26;;;;;;;11.57;4.32;;;;;;;9.07;100.00;100837.47;5012151;28;20026;-78
2023/04/02 04:01:19;;;;;;;14.15;4.78;;;;;;;9.09;100.00;100831.66;5033673;28;20132;-78
2023/04/02 04:03:54;;;;;;;13.98;5.20;;;;;;;9.09;100.00;100839.97;5003438;28;20087;-79
2023/04/02 04:06:23;;;;;;;15.77;5.20;;;;;;;9.08;100.00;100841.06;4997927;28;20037;-78
2023/04/02 04:08:53;;;;;;;13.60;5.00;;;;;;;9.07;100.00;100844.94;5017578;28;20027;-78
2023/04/02 04:11:23;;;;;;;10.88;5.65;;;;;;;9.06;100.00;100843.31;5021596;28;20030;-78
2023/04/02 04:14:13;;;;;;;17.27;5.43;;;;;;;9.06;100.00;100840.53;4989824;28;20036;-79
2023/04/02 04:16:46;;;;;;;16.50;4.82;;;;;;;9.08;100.00;100843.84;5017088;28;20029;-78
2023/04/02 04:19:16;;;;;;;;;;;;;;;9.07;100.00;100856.03;5006223;28;20036;-79
2023/04/02 04:21:44;;;;;;;17.98;5.80;;;;;;;9.06;100.00;100855.22;5032105;28;19960;-78
2023/04/02 04:24:19;;;;;;;14.38;5.22;;;;;;;9.03;100.00;100847.44;5033982;28;20056;-78
2023/04/02 04:27:08;;;;;;;13.43;4.85;;;;;;;9.07;100.00;100867.13;5033158;28;20087;-79
2023/04/02 04:29:56;;;;;;;14.65;5.22;;;;;;;9.07;100.00;100865.16;4997722;28;20092;-78
2023/04/02 04:32:30;;;;;;;8.40;4.30;;;;;;;9.07;100.00;100865.16;5013730;28;20395;-79
2023/04/02 04:35:14;;;;;;;13.43;5.00;;;;;;;9.06;100.00;100868.22;5031655;28;20029;-79
2023/04/02 04:37:40;;;;;;;14.85;4.85;;;;;;;9.05;100.00;100878.47;5000263;28;20479;-78
2023/04/02 04:40:20;;;;;;;12.48;4.45;;;;;;;9.06;100.00;100873.78;5013785;28;20077;-79
2023/04/02 04:42:45;;;;;;;16.13;5.00;;;;;;;9.08;100.00;100883.47;5002137;28;20751;-79
2023/04/02 04:45:38;;;;;;;11.40;4.47;;;;;;;9.07;100.00;100883.75;5037184;28;20091;-78
2023/04/02 04:48:18;;;;;;;12.50;4.22;;;;;;;9.02;100.00;100884.56;5038736;28;20069;-79
2023/04/02 04:50:52;;;;;;;21.92;5.03;;;;;;;9.05;100.00;100892.31;5001772;28;20037;-79
2023/04/02 04:53:22;;;;;;;9.43;4.20;;;;;;;9.06;100.00;100901.47;5020411;28;20034;-78
2023/04/02 04:55:51;;;;;;;12.38;3.75;;;;;;;9.06;100.00;100904.25;5008665;28;20065;-79
2023/04/02 04:58:41;;;;;;;13.60;4.50;;;;;;;9.03;100.00;100902.03;5031377;28;20032;-78
2023/04/02 05:01:06;;;;;;;15.73;4.07;;;;;;;9.03;100.00;100904.81;5021133;28;20033;-79
2023/04/02 05:03:51;;;;;;;13.95;4.38;;;;;;;9.01;100.00;100910.59;5033609;28;20033;-78
2023/04/02 05:07:04;;;;;;;14.95;4.18;;;;;;;9.03;100.00;100907.56;5014695;28;20070;-79
2023/04/02 05:09:40;;;;;;;17.17;4.85;;;;;;;8.98;100.00;100926.94;4989409;28;20035;-79
2023/04/02 05:12:10;;;;;;;16.92;4.68;;;;;;;8.96;100.00;100916.13;4979282;28;20034;-79
2023/04/02 05:14:56;;;;;;;15.88;4.80;;;;;;;8.94;100.00;100921.97;4971111;28;20092;-78
2023/04/02 05:17:27;;;;;;;13.43;5.07;;;;;;;8.92;100.00;100921.38;4960501;28;20031;-78
2023/04/02 05:19:59;;;;;;;12.80;4.20;;;;;;;8.90;100.00;100925.53;4967942;28;20033;-78
2023/04/02 05:22:38;;;;;;;12.45;4.30;;;;;;;8.87;100.00;100931.63;4956210;28;20038;-79
2023/04/02 05:25:22;;;;;;;13.93;4.40;;;;;;;8.85;100.00;100944.91;4986301;28;20098;-78
2023/04/02 05:28:08;;;;;;;20.83;4.65;;;;;;;8.79;100.00;100941.28;4958066;28;20124;-77
2023/04/02 05:30:45;;;;;;;15.88;7.32;;;;;;;8.77;100.00;100943.50;4957524;28;20049;-78
2023/04/02 05:33:18;;;;;;;12.18;5.13;;;;;;;8.75;100.00;100942.94;4965088;28;20065;-78
2023/04/02 05:35:45;;;;;;;12.32;5.28;;;;;;;8.70;100.00;100940.97;4983809;28;20109;-79
2023/04/02 05:38:20;;;;;;;14.40;5.22;;;;;;;8.65;100.00;100954.81;4947159;28;20170;-79
2023/04/02 05:40:45;;;;;;;10.73;4.28;;;;;;;8.66;100.00;100962.03;4985916;28;20171;-78
2023/04/02 05:43:14;;;;;;;11.50;4.38;;;;;;;8.61;100.00;100959.22;4990819;28;20099;-78
2023/04/02 05:45:40;;;;;;;7.72;3.83;;;;;;;8.61;100.00;100967.53;4984308;28;20030;-78
2023/04/02 05:48:28;;;;;;;9.10;3.72;;;;;;;8.61;100.00;100975.84;5017799;28;20052;-78
2023/04/02 05:50:54;;;;;;;8.82;3.70;;;;;;;8.54;100.00;100977.19;5013559;28;20033;-78
2023/04/02 05:53:39;;;;;;;9.55;3.83;;;;;;;8.47;100.00;100982.97;5003349;28;20032;-78
2023/04/02 05:56:16;;;;;;;8.13;3.42;;;;;;;8.47;100.00;100982.97;5022989;28;20080;-79
2023/04/02 05:59:03;;;;;;;10.07;3.83;;;;;;;8.42;100.00;100980.16;5032538;28;20042;-78
2023/04/02 06:01:44;;;;;;;6.65;3.60;;;;;;;8.32;100.00;100985.59;5052733;28;20040;-78
2023/04/02 06:04:21;;;;;;;8.77;3.88;;;;;;;8.33;100.00;100992.78;5019055;28;20042;-78
2023/04/02 06:06:50;;;;;;;11.63;5.25;;;;;;;8.27;100.00;100987.25;5032798;28;20564;-79
2023/04/02 06:09:36;;;;;;;6.68;3.60;;;;;;;8.25;100.00;100992.22;5045846;28;20030;-78
2023/04/02 06:12:29;;;;;;;5.35;3.53;;;;;;;8.22;100.00;100989.97;5038289;28;20044;-80
2023/04/02 06:14:55;;;;;;;5.28;3.10;;;;;;;8.17;100.00;100992.72;5037180;28;20077;-79
2023/04/02 06:17:20;;;;;;;8.50;3.20;;;;;;;8.13;100.00;100999.84;4986557;28;20402;-78
2023/04/02 06:19:46;;;;;;;8.23;3.42;;;;;;;8.04;100.00;101002.28;5002793;28;20512;-79
2023/04/02 06:22:22;;;;;;;7.68;3.53;;;;;;;8.05;100.00;101001.22;4986482;28;20029;-79
2023/04/02 06:24:51;;;;;;;4.28;3.25;;;;;;;8.02;100.00;101007.28;5002725;28;20025;-78
2023/04/02 06:27:18;;;;;;;6.32;2.80;;;;;;;8.01;100.00;101013.06;5000309;28;20051;-78
2023/04/02 06:29:44;;;;;;;5.18;2.97;;;;;;;8.01;100.00;101018.59;5013213;28;20398;-78
2023/04/02 06:32:10;;;;;;;6.95;3.13;;;;;;;7.96;100.00;101018.53;4996059;28;20027;-78
2023/04/02 06:34:37;;;;;;;4.13;2.63;;;;;;;7.97;100.00;101025.75;5004420;28;20025;-78
2023/04/02 06:37:26;;;;;;;7.60;3.10;;;;;;;7.96;100.00;101032.38;5019818;28;20029;-79
2023/04/02 06:39:52;;;;;;;5.05;2.70;;;;;;;8.00;100.00;101041.81;5023518;28;20037;-78
2023/04/02 06:42:26;;;;;;;5.93;2.90;;;;;;;8.03;100.00;101044.06;5022600;28;20030;-79
2023/04/02 06:44:51;;;;;;;8.88;3.10;;;;;;;8.00;100.00;101042.66;5014766;28;20102;-79
2023/04/02 06:47:16;;;;;;;4.82;2.30;;;;;;;8.06;100.00;101043.53;5002362;28;20045;-79
2023/04/02 06:49:50;;;;;;;3.80;2.72;;;;;;;8.07;100.00;101050.72;5034773;28;20444;-79
2023/04/02 06:52:44;;;;;;;5.53;2.80;;;;;;;8.12;100.00;101059.06;5018668;28;20100;-79
2023/04/02 06:55:32;;;;;;;6.20;3.20;;;;;;;8.16;100.00;101064.91;5056714;28;20440;-79
2023/04/02 06:57:58;;;;;;;6.95;3.17;;;;;;;8.16;100.00;101065.75;5025184;28;20057;-79
2023/04/02 07:00:35;;;;;;;6.93;3.50;;;;;;;8.18;100.00;101068.25;5019465;28;20085;-78
2023/04/02 07:03:00;;;;;;;6.45;3.28;;;;;;;8.21;100.00;101068.53;5018668;28;20025;-78
2023/04/02 07:05:26;;;;;;;5.78;3.63;;;;;;;8.21;100.00;101068.53;5044582;28;20033;-78
2023/04/02 07:07:52;;;;;;;7.65;3.22;;;;;;;8.24;100.00;101068.00;5027090;28;20034;-78
2023/04/02 07:10:19;;;;;;;5.68;3.30;;;;;;;8.23;100.00;101066.34;5017898;28;20038;-78
2023/04/02 07:12:45;;;;;;;6.70;3.83;;;;;;;8.26;100.00;101071.34;5015152;28;20034;-78
2023/04/02 07:15:18;;;;;;;7.60;3.50;;;;;;;8.31;100.00;101065.03;5021295;28;20022;-79
2023/04/02 07:17:44;;;;;;;10.55;3.90;;;;;;;8.34;100.00;101077.50;5014837;28;20030;-78
2023/04/02 07:20:29;;;;;;;5.90;3.58;;;;;;;8.39;100.00;101075.63;5033635;28;20474;-78
2023/04/02 07:22:55;;;;;;;7.63;3.63;;;;;;;8.44;100.00;101077.59;5036825;28;20037;-78
2023/04/02 07:25:20;;;;;;;8.02;3.80;;;;;;;8.47;100.00;101083.44;5004588;28;20462;-78
2023/04/02 07:27:46;;;;;;;8.38;3.53;;;;;;;8.52;100.00;101084.56;5021001;28;20037;-78
2023/04/02 07:30:12;;;;;;;6.85;3.47;;;;;;;8.56;100.00;101097.63;5017515;28;20034;-79
2023/04/02 07:32:37;;;;;;;9.48;3.47;;;;;;;8.62;100.00;101101.25;4985329;28;20045;-79
2023/04/02 07:35:04;;;;;;;8.02;3.13;;;;;;;8.66;100.00;101110.69;5016856;28;20041;-78
2023/04/02 07:37:30;;;;;;;8.05;3.40;;;;;;;8.69;100.00;101108.25;5034243;28;20045;-78
2023/04/02 07:39:55;;;;;;;8.38;3.03;;;;;;;8.73;100.00;101114.91;5017090;28;20591;-77
2023/04/02 07:42:21;;;;;;;7.93;3.38;;;;;;;8.79;100.00;101123.25;5022190;28;20054;-79
2023/04/02 07:44:46;;;;;;;5.78;3.20;;;;;;;8.82;100.00;101126.31;5030073;28;20026;-78
2023/04/02 07:47:12;;;;;;;7.00;3.13;;;;;;;8.87;100.00;101131.06;4979111;28;20029;-78
2023/04/02 07:49:38;;;;;;;10.15;3.28;;;;;;;8.94;100.00;101129.72;5019402;28;20050;-78
2023/04/02 07:52:04;;;;;;;10.30;3.50;;;;;;;9.02;100.00;101128.38;5014479;28;20029;-78
2023/04/02 07:54:29;;;;;;;6.47;3.20;;;;;;;9.08;100.00;101130.09;5046670;28;20554;-78
2023/04/02 07:56:55;;;;;;;6.93;2.90;;;;;;;9.09;100.00;101128.97;4981333;28;20065;-78
2023/04/02 07:59:21;;;;;;;8.10;2.88;;;;;;;9.15;100.00;101132.59;5046523;28;20045;-79
2023/04/02 08:01:47;;;;;;;7.95;3.00;;;;;;;9.20;100.00;101140.13;5001389;28;20024;-78
2023/04/02 08:04:20;;;;;;;5.35;2.55;;;;;;;9.23;100.00;101136.81;5001158;28;20426;-78
2023/04/02 08:06:46;;;;;;;5.57;2.60;;;;;;;9.26;100.00;101148.16;5017437;28;20025;-78
2023/04/02 08:09:12;;;;;;;6.90;2.70;;;;;;;9.28;100.00;101134.88;4981493;28;20033;-79
2023/04/02 08:11:39;;;;;;;6.68;2.80;;;;;;;9.36;100.00;101139.06;5033770;28;20030;-79
2023/04/02 08:14:04;;;;;;;4.53;2.92;;;;;;;9.37;100.00;101141.56;5047880;28;20029;-79
2023/04/02 08:16:50;;;;;;;5.07;2.15;;;;;;;9.45;100.00;101145.75;5033541;28;20422;-78
2023/04/02 08:19:15;;;;;;;4.32;2.05;;;;;;;9.47;100.00;101151.88;5008380;28;20032;-78
2023/04/02 08:21:41;;;;;;;7.40;2.60;;;;;;;9.51;100.00;101153.00;5003283;28;20026;-78
2023/04/02 08:24:07;;;;;;;5.30;2.05;;;;;;;9.57;100.00;101151.06;5021801;28;20083;-78
2023/04/02 08:26:32;;;;;;;5.72;3.17;;;;;;;9.62;100.00;101153.88;4986158;28;20041;-78
2023/04/02 08:28:58;;;;;;;5.05;2.20;;;;;;;9.70;100.00;101155.28;5000558;28;20549;-78
2023/04/02 08:31:23;;;;;;;4.32;1.90;;;;;;;9.75;100.00;101163.59;5029269;28;20060;-79
2023/04/02 08:33:49;;;;;;;5.97;2.60;;;;;;;9.82;100.00;101155.88;5018046;28;20033;-79
2023/04/02 08:36:15;;;;;;;4.00;2.03;;;;;;;9.87;100.00;101157.84;5049518;28;20036;-78
2023/04/02 08:38:41;;;;;;;5.93;2.10;;;;;;;9.93;100.00;101156.72;4989459;28;20025;-78
2023/04/02 08:41:06;;;;;;;6.43;1.80;;;;;;;9.98;100.00;101163.13;4984533;28;20032;-79
2023/04/02 08:43:39;;;;;;;4.28;2.10;;;;;;;10.07;100.00;101160.63;5001156;28;20104;-79
2023/04/02 08:46:18;;;;;;;5.05;1.92;;;;;;;10.15;100.00;101165.66;5047685;28;20116;-79
2023/04/02 08:48:47;;;;;;;5.43;1.83;;;;;;;10.23;100.00;101169.84;5037266;28;20107;-78
2023/04/02 08:51:28;;;;;;;3.67;1.60;;;;;;;10.26;100.00;101169.28;5037167;28;20091;-78
2023/04/02 08:53:55;;;;;;;7.75;2.10;;;;;;;10.30;100.00;101173.19;5005220;28;20026;-79
2023/04/02 08:56:32;;;;;;;3.80;1.65;;;;;;;10.35;100.00;101178.75;4989751;28;20029;-79
2023/04/02 08:59:00;;;;;;;4.15;1.70;;;;;;;10.40;100.00;101178.75;5022949;28;20044;-78
2023/04/02 09:01:33;;;;;;;4.78;1.40;;;;;;;10.37;100.00;101182.09;5020377;28;20092;-78
2023/04/02 09:03:59;;;;;;;5.50;1.65;;;;;;;10.36;100.00;101193.47;5031606;28;20033;-79
2023/04/02 09:06:26;;;;;;;6.28;1.85;;;;;;;10.36;100.00;101201.78;5020075;28;20060;-79
2023/04/02 09:08:52;;;;;;;5.40;1.40;;;;;;;10.37;100.00;101206.25;5020561;28;20060;-78
2023/04/02 09:11:20;;;;;;;5.53;1.70;;;;;;;10.30;100.00;101203.72;5016617;28;20605;-78
2023/04/02 09:13:47;;;;;;;2.53;1.52;;;;;;;10.27;100.00;101213.44;5015733;28;20075;-79
2023/04/02 09:16:15;;;;;;;5.68;1.70;;;;;;;10.20;100.00;101210.09;5016895;28;20437;-79
2023/04/02 09:18:40;;;;;;;4.28;1.77;;;;;;;10.17;100.00;101215.31;5065586;28;20076;-78
2023/04/02 09:21:18;;;;;;;5.80;1.80;;;;;;;10.17;100.00;101229.19;5000768;28;20034;-79
2023/04/02 09:23:44;;;;;;;5.68;2.00;;;;;;;10.11;100.00;101227.53;5035049;28;20030;-78
2023/04/02 09:26:21;;;;;;;8.45;1.90;;;;;;;10.06;100.00;101229.19;5034791;28;20781;-78
2023/04/02 09:28:48;;;;;;;6.30;2.20;;;;;;;10.01;100.00;101231.94;5032071;28;20137;-78
2023/04/02 09:31:19;;;;;;;4.78;2.30;;;;;;;9.99;100.00;101223.06;5038951;28;20054;-78
2023/04/02 09:33:48;;;;;;;7.35;2.33;;;;;;;9.98;100.00;101226.13;5047393;28;20519;-79
2023/04/02 09:36:34;;;;;;;4.53;2.05;;;;;;;9.93;100.00;101232.47;5018466;28;20032;-79
2023/04/02 09:39:05;;;;;;;8.48;2.83;;;;;;;9.95;100.00;101232.22;5003833;28;20120;-78
2023/04/02 09:41:32;;;;;;;5.97;2.15;;;;;;;9.92;100.00;101241.06;5048267;28;20025;-78
2023/04/02 09:44:38;;;;;;;5.47;1.80;;;;;;;9.92;100.00;101246.59;5036583;28;20038;-78
2023/04/02 09:47:05;;;;;;;5.03;1.90;;;;;;;9.97;100.00;101250.25;5028309;28;20128;-78
2023/04/02 09:49:35;;;;;;;4.10;2.00;;;;;;;9.95;100.00;101246.91;5021167;28;20057;-78
2023/04/02 09:52:14;;;;;;;6.30;2.28;;;;;;;9.95;100.00;101246.09;5036125;28;20037;-78
2023/04/02 09:54:42;;;;;;;6.90;2.70;;;;;;;9.99;100.00;101247.19;5004429;28;20159;-78
2023/04/02 09:57:26;;;;;;;9.48;2.10;;;;;;;10.02;100.00;101250.25;4984256;28;20107;-78
2023/04/02 10:00:11;;;;;;;8.10;2.15;;;;;;;10.05;100.00;101255.25;5032731;28;20034;-78
2023/04/02 10:02:37;;;;;;;4.47;2.08;;;;;;;10.10;100.00;101253.63;5033005;28;20540;-78
2023/04/02 10:05:05;;;;;;;7.25;2.10;;;;;;;10.17;100.00;101251.41;4986529;28;20030;-78
2023/04/02 10:07:44;;;;;;;9.40;2.83;;;;;;;10.27;100.00;101260.63;4986887;28;20057;-78
2023/04/02 10:10:30;;;;;;;9.07;2.30;;;;;;;10.35;100.00;101261.22;5004081;28;20022;-78
2023/04/02 10:13:03;;;;;;;3.70;1.73;;;;;;;10.37;100.00;101262.63;5023494;28;20029;-78
2023/04/02 10:15:40;;;;;;;4.57;1.48;;;;;;;10.43;100.00;101258.72;5003380;28;20039;-79
2023/04/02 10:18:11;;;;;;;4.88;1.48;;;;;;;10.54;100.00;101253.22;5032821;28;20037;-78
2023/04/02 10:20:38;;;;;;;5.78;1.60;;;;;;;10.59;100.00;101248.50;5050770;28;20029;-79
2023/04/02 10:23:03;;;;;;;4.55;1.90;;;;;;;10.67;100.00;101261.84;5003352;28;20164;-78
2023/04/02 10:25:31;;;;;;;3.40;1.88;;;;;;;10.78;100.00;101268.22;5002385;28;20117;-79
2023/04/02 10:28:03;;;;;;;3.72;1.58;;;;;;;10.85;100.00;101259.63;4988742;28;20120;-78
2023/04/02 10:31:02;;;;;;;3.28;1.75;;;;;;;10.82;100.00;101258.22;5032171;28;20052;-78
2023/04/02 10:33:31;;;;;;;3.25;1.40;;;;;;;10.84;100.00;101261.56;5034926;28;20263;-79
2023/04/02 10:36:35;;;;;;;2.22;1.33;;;;;;;10.90;100.00;101268.78;5022450;28;20037;-79
2023/04/02 10:39:17;;;;;;;1.95;1.20;;;;;;;10.87;100.00;101276.84;5008625;28;20101;-79
2023/04/02 10:41:56;;;;;;;1.70;1.05;;;;;;;10.90;100.00;101284.63;5001431;28;20033;-79
2023/04/02 10:44:51;;;;;;;4.05;1.58;;;;;;;10.85;100.00;101293.78;5035446;28;20036;-79
2023/04/02 10:47:40;;;;;;;1.85;1.00;;;;;;;10.80;100.00;101301.28;5027211;28;20394;-79
2023/04/02 10:50:23;;;;;;;3.75;1.40;;;;;;;10.89;100.00;101311.59;5002013;28;20071;-79
2023/04/02 10:52:53;;;;;;;4.15;2.03;;;;;;;10.92;100.00;101308.25;5003359;28;20025;-80
2023/04/02 10:55:24;;;;;;;2.42;1.75;;;;;;;10.88;100.00;101301.56;5018120;28;20105;-79
2023/04/02 10:57:50;;;;;;;3.55;1.70;;;;;;;10.90;100.00;101301.31;5031455;28;20709;-79
2023/04/02 11:00:27;;;;;;;3.42;1.92;;;;;;;10.98;100.00;101297.13;5011725;28;20026;-79
2023/04/02 11:03:10;;;;;;;3.35;1.80;;;;;;;11.13;100.00;101305.47;5035533;28;20053;-79
2023/04/02 11:05:42;;;;;;;3.42;1.77;;;;;;;11.22;100.00;101309.34;5034661;28;20030;-79
2023/04/02 11:08:17;;;;;;;3.47;1.57;;;;;;;11.32;100.00;101316.88;5020162;28;20544;-79
2023/04/02 11:10:57;;;;;;;5.43;1.73;;;;;;;11.40;100.00;101306.00;5030824;28;20312;-79
2023/04/02 11:13:29;;;;;;;3.55;1.80;;;;;;;11.48;100.00;101323.22;5047435;28;20108;-79
2023/04/02 11:15:55;;;;;;;2.95;2.08;;;;;;;11.48;100.00;101324.06;5002192;28;20040;-79
2023/04/02 11:18:28;;;;;;;2.38;1.85;;;;;;;11.50;100.00;101332.94;5022576;28;20482;-80
2023/04/02 11:20:56;;;;;;;2.08;1.63;;;;;;;11.49;100.00;101324.91;5016308;28;20387;-79
2023/04/02 11:23:21;;;;;;;2.78;1.60;;;;;;;11.53;100.00;101331.56;5004406;28;20040;-79
2023/04/02 11:25:47;;;;;;;3.25;1.77;;;;;;;11.58;100.00;101328.78;5016731;28;20030;-79
2023/04/02 11:28:25;;;;;;;3.30;1.65;;;;;;;11.65;100.00;101334.91;5014436;28;20061;-79
2023/04/02 11:30:51;;;;;;;4.55;1.70;;;;;;;11.72;100.00;101329.84;5000076;28;20042;-79
2023/04/02 11:33:39;;;;;;;6.20;2.53;;;;;;;11.83;100.00;101334.28;5003647;28;20485;-79
2023/04/02 11:36:43;;;;;;;5.70;1.77;;;;;;;11.82;100.00;101351.28;5038968;28;20034;-79
2023/04/02 11:39:08;;;;;;;3.97;1.90;;;;;;;11.81;100.00;101347.66;5034039;28;20025;-79
2023/04/02 11:41:57;;;;;;;3.15;2.00;;;;;;;11.92;100.00;101356.00;5000887;28;20030;-79
2023/04/02 11:44:23;;;;;;;5.88;2.13;;;;;;;11.81;100.00;101356.00;5033814;28;20508;-79
2023/04/02 11:46:49;;;;;;;3.30;2.00;;;;;;;11.87;100.00;101358.78;5002640;28;20037;-79